createdAt,value
2017-03-11T00:00:55.915Z,74.15
2017-03-11T00:01:56.350Z,74.01
2017-03-11T00:02:55.975Z,74.01
2017-03-11T00:03:56.434Z,73.82
2017-03-11T00:04:56.046Z,74.01
2017-03-11T00:05:56.497Z,73.82
2017-03-11T00:06:56.114Z,74.39
2017-03-11T00:07:56.559Z,73.92
2017-03-11T00:08:56.169Z,74.3
2017-03-11T00:09:56.210Z,74.39
2017-03-11T00:10:56.242Z,74.11
2017-03-11T00:11:56.282Z,74.2
2017-03-11T00:12:56.309Z,74.68
2017-03-11T00:13:56.764Z,74.39
2017-03-11T00:14:56.374Z,74.39
2017-03-11T00:15:56.806Z,74.2
2017-03-11T00:16:56.436Z,74.11
2017-03-11T00:17:56.471Z,74.11
2017-03-11T00:18:56.503Z,74.11
2017-03-11T00:19:56.533Z,74.58
2017-03-11T00:20:56.560Z,74.58
2017-03-11T00:21:56.605Z,74.77
2017-03-11T00:22:56.640Z,74.49
2017-03-11T00:23:56.666Z,74.58
2017-03-11T00:24:56.697Z,74.58
2017-03-11T00:25:57.117Z,74.58
2017-03-11T00:26:56.764Z,74.68
2017-03-11T00:27:56.791Z,74.68
2017-03-11T00:28:56.860Z,74.68
2017-03-11T00:29:56.855Z,74.68
2017-03-11T00:30:56.899Z,74.96
2017-03-11T00:31:56.923Z,74.96
2017-03-11T00:32:56.952Z,74.96
2017-03-11T00:33:57.004Z,74.96
2017-03-11T00:34:57.017Z,74.68
2017-03-11T00:35:57.465Z,74.77
2017-03-11T00:36:57.087Z,74.77
2017-03-11T00:37:57.532Z,74.87
2017-03-11T00:38:57.153Z,74.77
2017-03-11T00:39:57.610Z,74.77
2017-03-11T00:40:57.219Z,74.77
2017-03-11T00:41:57.659Z,75.15
2017-03-11T00:42:57.279Z,74.77
2017-03-11T00:43:57.311Z,74.77
2017-03-11T00:44:57.348Z,74.87
2017-03-11T00:45:57.391Z,74.96
2017-03-11T00:46:57.458Z,74.96
2017-03-11T00:47:57.458Z,75.05
2017-03-11T00:48:57.483Z,75.05
2017-03-11T00:49:57.920Z,74.77
2017-03-11T00:50:57.548Z,75.43
2017-03-11T00:51:57.578Z,75.15
2017-03-11T00:52:57.609Z,74.96
2017-03-11T00:53:57.642Z,75.53
2017-03-11T00:54:58.062Z,75.05
2017-03-11T00:55:58.128Z,75.43
2017-03-11T00:56:57.740Z,75.43
2017-03-11T00:57:58.189Z,74.87
2017-03-11T00:58:57.801Z,75.43
2017-03-11T00:59:58.251Z,75.34
2017-03-11T01:00:58.257Z,75.34
2017-03-11T01:01:58.318Z,75.34
2017-03-11T01:02:57.945Z,75.15
2017-03-11T01:03:58.415Z,75.34
2017-03-11T01:04:58.000Z,75.43
2017-03-11T01:05:58.449Z,75.34
2017-03-11T01:06:58.064Z,75.24
2017-03-11T01:07:58.494Z,75.24
2017-03-11T01:08:58.142Z,75.53
2017-03-11T01:09:58.158Z,75.43
2017-03-11T01:10:58.200Z,75.24
2017-03-11T01:11:58.654Z,75.34
2017-03-11T01:12:58.269Z,75.34
2017-03-11T01:13:58.316Z,75.43
2017-03-11T01:14:58.325Z,75.34
2017-03-11T01:15:58.761Z,75.34
2017-03-11T01:16:58.388Z,75.53
2017-03-11T01:17:58.849Z,75.34
2017-03-11T01:18:58.461Z,75.05
2017-03-11T01:19:58.901Z,74.87
2017-03-11T01:20:58.520Z,75.05
2017-03-11T01:21:58.983Z,74.96
2017-03-11T01:22:58.587Z,75.34
2017-03-11T01:23:59.011Z,74.77
2017-03-11T01:24:58.650Z,74.77
2017-03-11T01:25:59.090Z,74.96
2017-03-11T01:26:58.727Z,75.15
2017-03-11T01:27:58.755Z,74.87
2017-03-11T01:28:58.778Z,75.62
2017-03-11T01:29:58.815Z,74.96
2017-03-11T01:30:58.847Z,75.34
2017-03-11T01:31:58.876Z,75.24
2017-03-11T01:32:58.902Z,75.15
2017-03-11T01:33:59.363Z,75.24
2017-03-11T01:34:58.984Z,75.34
2017-03-11T01:35:59.406Z,75.15
2017-03-11T01:36:59.035Z,74.96
2017-03-11T01:37:59.502Z,75.53
2017-03-11T01:38:59.115Z,75.81
2017-03-11T01:39:59.553Z,76.01
2017-03-11T01:40:59.170Z,75.62
2017-03-11T01:41:59.210Z,75.34
2017-03-11T01:42:59.230Z,75.72
2017-03-11T01:43:59.268Z,75.62
2017-03-11T01:44:59.293Z,75.81
2017-03-11T01:45:59.331Z,75.62
2017-03-11T01:46:59.376Z,75.91
2017-03-11T01:47:59.391Z,75.53
2017-03-11T01:48:59.429Z,75.72
2017-03-11T01:49:59.893Z,75.62
2017-03-11T01:50:59.498Z,76.06
2017-03-11T01:51:59.543Z,75.72
2017-03-11T01:52:59.566Z,76.01
2017-03-11T01:53:59.595Z,76.2
2017-03-11T01:54:59.627Z,76.2
2017-03-11T01:56:00.060Z,75.81
2017-03-11T01:56:59.683Z,75.68
2017-03-11T01:57:59.721Z,75.53
2017-03-11T01:58:59.752Z,75.49
2017-03-11T01:59:59.790Z,76.06
2017-03-11T02:00:59.905Z,76.15
2017-03-11T02:02:00.257Z,75.87
2017-03-11T02:02:59.880Z,76.44
2017-03-11T02:04:00.332Z,76.54
2017-03-11T02:04:59.948Z,76.54
2017-03-11T02:05:59.976Z,76.25
2017-03-11T02:07:00.008Z,76.92
2017-03-11T02:08:00.439Z,76.44
2017-03-11T02:09:00.077Z,76.34
2017-03-11T02:10:00.516Z,76.44
2017-03-11T02:11:00.136Z,76.92
2017-03-11T02:12:00.580Z,76.92
2017-03-11T02:13:00.196Z,77.01
2017-03-11T02:14:00.629Z,76.73
2017-03-11T02:15:00.266Z,76.63
2017-03-11T02:16:00.700Z,76.34
2017-03-11T02:17:00.330Z,76.54
2017-03-11T02:18:00.769Z,76.82
2017-03-11T02:19:00.417Z,77.01
2017-03-11T02:20:00.835Z,76.82
2017-03-11T02:21:00.479Z,77.39
2017-03-11T02:22:00.905Z,77.2
2017-03-11T02:23:00.522Z,77.11
2017-03-11T02:24:00.966Z,76.92
2017-03-11T02:25:00.587Z,77.11
2017-03-11T02:26:01.043Z,77.01
2017-03-11T02:27:00.644Z,77.11
2017-03-11T02:28:01.085Z,76.82
2017-03-11T02:29:00.709Z,76.92
2017-03-11T02:30:01.167Z,76.63
2017-03-11T02:31:00.803Z,77.11
2017-03-11T02:32:01.207Z,76.73
2017-03-11T02:33:00.842Z,76.92
2017-03-11T02:34:01.287Z,77.39
2017-03-11T02:35:00.911Z,77.39
2017-03-11T02:36:01.366Z,76.82
2017-03-11T02:37:00.967Z,77.29
2017-03-11T02:38:01.417Z,77.29
2017-03-11T02:39:01.029Z,77.01
2017-03-11T02:40:01.481Z,77.48
2017-03-11T02:41:01.108Z,76.92
2017-03-11T02:42:01.543Z,77.39
2017-03-11T02:43:01.181Z,76.92
2017-03-11T02:44:01.205Z,77.39
2017-03-11T02:45:01.227Z,77.29
2017-03-11T02:46:01.282Z,77.48
2017-03-11T02:47:01.684Z,77.39
2017-03-11T02:48:01.745Z,77.2
2017-03-11T02:49:01.363Z,76.92
2017-03-11T02:50:01.799Z,77.39
2017-03-11T02:51:01.419Z,77.29
2017-03-11T02:52:01.446Z,77.29
2017-03-11T02:53:01.481Z,77.29
2017-03-11T02:54:01.537Z,77.01
2017-03-11T02:55:01.541Z,77.39
2017-03-11T02:56:01.984Z,77.39
2017-03-11T02:57:01.630Z,77.2
2017-03-11T02:58:02.065Z,77.01
2017-03-11T02:59:01.669Z,77.39
2017-03-11T03:00:02.131Z,76.92
2017-03-11T03:01:01.748Z,76.92
2017-03-11T03:02:02.187Z,77.2
2017-03-11T03:03:01.805Z,76.82
2017-03-11T03:04:01.828Z,76.92
2017-03-11T03:05:01.891Z,77.48
2017-03-11T03:06:02.326Z,77.29
2017-03-11T03:07:01.932Z,77.01
2017-03-11T03:08:01.967Z,77.2
2017-03-11T03:09:01.996Z,77.2
2017-03-11T03:10:02.457Z,77.2
2017-03-11T03:11:02.058Z,77.2
2017-03-11T03:12:02.495Z,77.39
2017-03-11T03:13:02.119Z,77.2
2017-03-11T03:14:02.565Z,77.39
2017-03-11T03:15:02.181Z,76.82
2017-03-11T03:16:02.633Z,77.01
2017-03-11T03:17:02.260Z,76.92
2017-03-11T03:18:02.693Z,77.39
2017-03-11T03:19:02.312Z,77.39
2017-03-11T03:20:02.751Z,77.39
2017-03-11T03:21:02.382Z,76.82
2017-03-11T03:22:02.817Z,77.2
2017-03-11T03:23:02.835Z,77.39
2017-03-11T03:24:02.897Z,77.48
2017-03-11T03:25:02.501Z,77.11
2017-03-11T03:26:02.951Z,77.2
2017-03-11T03:27:02.571Z,77.2
2017-03-11T03:28:03.024Z,77.29
2017-03-11T03:29:02.633Z,77.77
2017-03-11T03:30:03.089Z,77.48
2017-03-11T03:31:02.709Z,77.48
2017-03-11T03:32:03.147Z,77.48
2017-03-11T03:33:03.189Z,77.48
2017-03-11T03:34:03.210Z,77.67
2017-03-11T03:35:02.831Z,77.48
2017-03-11T03:36:03.259Z,77.29
2017-03-11T03:37:02.892Z,77.86
2017-03-11T03:38:03.354Z,77.77
2017-03-11T03:39:02.951Z,77.58
2017-03-11T03:40:03.377Z,77.58
2017-03-11T03:41:03.017Z,77.48
2017-03-11T03:42:03.052Z,77.48
2017-03-11T03:43:03.076Z,77.39
2017-03-11T03:44:03.105Z,77.67
2017-03-11T03:45:03.529Z,77.29
2017-03-11T03:46:03.190Z,77.58
2017-03-11T03:47:03.218Z,77.67
2017-03-11T03:48:03.647Z,77.67
2017-03-11T03:49:03.266Z,77.86
2017-03-11T03:50:03.723Z,77.29
2017-03-11T03:51:03.336Z,77.2
2017-03-11T03:52:03.370Z,77.48
2017-03-11T03:53:03.398Z,77.77
2017-03-11T03:54:03.834Z,77.58
2017-03-11T03:55:03.457Z,77.77
2017-03-11T03:56:03.905Z,77.77
2017-03-11T03:57:03.535Z,77.67
2017-03-11T03:58:03.970Z,77.77
2017-03-11T03:59:03.587Z,77.86
2017-03-11T04:00:03.624Z,77.77
2017-03-11T04:01:04.045Z,77.67
2017-03-11T04:02:03.685Z,77.77
2017-03-11T04:03:03.747Z,77.67
2017-03-11T04:04:04.149Z,77.77
2017-03-11T04:05:03.773Z,77.58
2017-03-11T04:06:04.218Z,77.77
2017-03-11T04:07:03.841Z,77.39
2017-03-11T04:08:04.289Z,77.29
2017-03-11T04:09:03.911Z,77.58
2017-03-11T04:10:04.361Z,77.48
2017-03-11T04:11:03.981Z,77.48
2017-03-11T04:12:04.417Z,77.48
2017-03-11T04:13:04.036Z,77.48
2017-03-11T04:14:04.071Z,77.58
2017-03-11T04:15:04.513Z,77.67
2017-03-11T04:16:04.563Z,77.67
2017-03-11T04:17:04.561Z,77.58
2017-03-11T04:18:04.611Z,77.77
2017-03-11T04:19:04.227Z,77.77
2017-03-11T04:20:04.707Z,77.39
2017-03-11T04:21:04.676Z,77.67
2017-03-11T04:22:04.735Z,77.67
2017-03-11T04:23:04.346Z,77.77
2017-03-11T04:24:04.799Z,78.05
2017-03-11T04:25:04.417Z,77.67
2017-03-11T04:26:04.867Z,77.77
2017-03-11T04:27:04.474Z,77.67
2017-03-11T04:28:04.909Z,77.77
2017-03-11T04:29:04.539Z,77.77
2017-03-11T04:30:04.968Z,77.77
2017-03-11T04:31:04.602Z,77.77
2017-03-11T04:32:05.058Z,77.77
2017-03-11T04:33:04.693Z,77.77
2017-03-11T04:34:05.113Z,77.77
2017-03-11T04:35:05.130Z,77.77
2017-03-11T04:36:05.165Z,78.34
2017-03-11T04:37:04.799Z,78.34
2017-03-11T04:38:04.829Z,78.43
2017-03-11T04:39:05.255Z,78.05
2017-03-11T04:40:04.893Z,77.58
2017-03-11T04:41:04.923Z,78.34
2017-03-11T04:42:05.354Z,78.15
2017-03-11T04:43:04.983Z,78.24
2017-03-11T04:44:05.446Z,77.96
2017-03-11T04:45:05.052Z,78.24
2017-03-11T04:46:05.501Z,78.24
2017-03-11T04:47:05.111Z,77.96
2017-03-11T04:48:05.539Z,77.77
2017-03-11T04:49:05.173Z,77.77
2017-03-11T04:50:05.204Z,77.67
2017-03-11T04:51:05.240Z,77.67
2017-03-11T04:52:05.277Z,77.77
2017-03-11T04:53:05.721Z,77.58
2017-03-11T04:54:05.351Z,77.58
2017-03-11T04:55:05.363Z,77.58
2017-03-11T04:56:05.402Z,77.39
2017-03-11T04:57:05.435Z,77.48
2017-03-11T04:58:05.865Z,77.86
2017-03-11T04:59:05.512Z,77.86
2017-03-11T05:00:05.529Z,77.39
2017-03-11T05:01:05.557Z,77.86
2017-03-11T05:02:05.590Z,77.77
2017-03-11T05:03:05.619Z,77.58
2017-03-11T05:04:06.086Z,77.67
2017-03-11T05:05:05.685Z,77.58
2017-03-11T05:06:06.134Z,77.48
2017-03-11T05:07:05.757Z,77.77
2017-03-11T05:08:05.783Z,77.67
2017-03-11T05:09:05.817Z,77.67
2017-03-11T05:10:06.258Z,77.48
2017-03-11T05:11:05.884Z,77.58
2017-03-11T05:12:06.311Z,77.96
2017-03-11T05:13:05.936Z,77.45
2017-03-11T05:14:05.977Z,77.58
2017-03-11T05:15:06.025Z,77.67
2017-03-11T05:16:06.039Z,77.77
2017-03-11T05:17:06.070Z,77.58
2017-03-11T05:18:06.097Z,77.77
2017-03-11T05:19:06.132Z,77.73
2017-03-11T05:20:06.164Z,77.54
2017-03-11T05:21:06.206Z,77.77
2017-03-11T05:22:06.625Z,77.73
2017-03-11T05:23:06.266Z,77.54
2017-03-11T05:24:06.302Z,77.67
2017-03-11T05:25:06.324Z,77.54
2017-03-11T05:26:06.760Z,77.64
2017-03-11T05:27:06.382Z,77.73
2017-03-11T05:28:06.419Z,77.73
2017-03-11T05:29:06.451Z,77.25
2017-03-11T05:30:06.483Z,77.73
2017-03-11T05:31:06.512Z,78.02
2017-03-11T05:32:06.545Z,77.92
2017-03-11T05:33:06.571Z,77.64
2017-03-11T05:34:06.622Z,78.2
2017-03-11T05:35:06.651Z,78.2
2017-03-11T05:36:06.666Z,78.02
2017-03-11T05:37:06.704Z,78.11
2017-03-11T05:38:06.736Z,78.11
2017-03-11T05:39:06.767Z,78.2
2017-03-11T05:40:07.197Z,78.2
2017-03-11T05:41:06.838Z,77.77
2017-03-11T05:42:06.863Z,78.15
2017-03-11T05:43:06.906Z,78.39
2017-03-11T05:44:07.335Z,78.02
2017-03-11T05:45:06.955Z,78.24
2017-03-11T05:46:06.998Z,78.15
2017-03-11T05:47:07.062Z,77.83
2017-03-11T05:48:07.057Z,77.96
2017-03-11T05:49:07.094Z,77.96
2017-03-11T05:50:07.530Z,78.05
2017-03-11T05:51:07.141Z,78.24
2017-03-11T05:52:07.603Z,78.34
2017-03-11T05:53:07.208Z,78.24
2017-03-11T05:54:07.275Z,78.15
2017-03-11T05:55:07.274Z,78.24
2017-03-11T05:56:07.709Z,78.15
2017-03-11T05:57:07.345Z,78.05
2017-03-11T05:58:07.779Z,78.15
2017-03-11T05:59:07.411Z,78.24
2017-03-11T06:00:07.847Z,78.05
2017-03-11T06:01:07.468Z,77.77
2017-03-11T06:02:07.905Z,77.58
2017-03-11T06:03:07.530Z,77.96
2017-03-11T06:04:07.982Z,77.67
2017-03-11T06:05:07.603Z,77.77
2017-03-11T06:06:08.050Z,77.77
2017-03-11T06:07:07.656Z,77.39
2017-03-11T06:08:07.690Z,77.67
2017-03-11T06:09:07.759Z,77.77
2017-03-11T06:10:07.750Z,77.39
2017-03-11T06:11:07.795Z,77.67
2017-03-11T06:12:07.824Z,77.77
2017-03-11T06:13:07.861Z,77.39
2017-03-11T06:14:08.304Z,77.67
2017-03-11T06:15:07.914Z,77.48
2017-03-11T06:16:07.950Z,77.77
2017-03-11T06:17:07.973Z,77.58
2017-03-11T06:18:08.013Z,77.77
2017-03-11T06:19:08.046Z,77.29
2017-03-11T06:20:08.478Z,77.29
2017-03-11T06:21:08.107Z,77.48
2017-03-11T06:22:08.545Z,77.58
2017-03-11T06:23:08.186Z,77.67
2017-03-11T06:24:08.204Z,77.29
2017-03-11T06:25:08.231Z,77.52
2017-03-11T06:26:08.262Z,76.82
2017-03-11T06:27:08.294Z,77.39
2017-03-11T06:28:08.745Z,77.48
2017-03-11T06:29:08.371Z,77.2
2017-03-11T06:30:08.800Z,77.24
2017-03-11T06:31:08.434Z,77.14
2017-03-11T06:32:08.462Z,76.95
2017-03-11T06:33:08.496Z,77.33
2017-03-11T06:34:08.944Z,77.24
2017-03-11T06:35:08.555Z,77.43
2017-03-11T06:36:08.606Z,76.76
2017-03-11T06:37:08.619Z,77.33
2017-03-11T06:38:09.069Z,76.86
2017-03-11T06:39:08.685Z,77.24
2017-03-11T06:40:08.724Z,77.14
2017-03-11T06:41:08.753Z,76.39
2017-03-11T06:42:09.232Z,76.57
2017-03-11T06:43:08.821Z,76.29
2017-03-11T06:44:09.273Z,76.67
2017-03-11T06:45:08.890Z,76.52
2017-03-11T06:46:09.327Z,76.42
2017-03-11T06:47:08.946Z,76.61
2017-03-11T06:48:09.390Z,76.42
2017-03-11T06:49:09.022Z,76.99
2017-03-11T06:50:09.469Z,76.61
2017-03-11T06:51:09.094Z,76.42
2017-03-11T06:52:09.533Z,76.46
2017-03-11T06:53:09.153Z,76.18
2017-03-11T06:54:09.191Z,75.7
2017-03-11T06:55:09.216Z,75.51
2017-03-11T06:56:09.648Z,74.75
2017-03-11T06:57:09.280Z,74.56
2017-03-11T06:58:09.725Z,74.47
2017-03-11T06:59:09.354Z,74.75
2017-03-11T07:00:09.400Z,74.56
2017-03-11T07:01:09.430Z,74.37
2017-03-11T07:02:09.897Z,74.37
2017-03-11T07:03:09.498Z,74.56
2017-03-11T07:04:09.522Z,74.37
2017-03-11T07:05:09.551Z,74.08
2017-03-11T07:06:09.586Z,74.37
2017-03-11T07:07:09.615Z,73.99
2017-03-11T07:08:09.653Z,73.8
2017-03-11T07:09:09.696Z,74.08
2017-03-11T07:10:10.136Z,73.99
2017-03-11T07:11:09.762Z,74.08
2017-03-11T07:12:10.191Z,73.9
2017-03-11T07:13:09.826Z,73.8
2017-03-11T07:14:10.263Z,73.8
2017-03-11T07:15:09.891Z,73.61
2017-03-11T07:16:10.333Z,74.08
2017-03-11T07:17:09.952Z,73.71
2017-03-11T07:18:10.399Z,73.61
2017-03-11T07:19:10.024Z,73.52
2017-03-11T07:20:10.464Z,73.52
2017-03-11T07:21:10.094Z,73.04
2017-03-11T07:22:10.559Z,73.33
2017-03-11T07:23:10.157Z,73.42
2017-03-11T07:24:10.226Z,73.23
2017-03-11T07:25:10.221Z,73.61
2017-03-11T07:26:10.676Z,72.75
2017-03-11T07:27:10.316Z,72.66
2017-03-11T07:28:10.762Z,72.85
2017-03-11T07:29:10.365Z,72.95
2017-03-11T07:30:10.812Z,72.85
2017-03-11T07:31:10.422Z,72.66
2017-03-11T07:32:10.885Z,72.66
2017-03-11T07:33:10.492Z,72.66
2017-03-11T07:34:10.938Z,73.04
2017-03-11T07:35:10.559Z,72.75
2017-03-11T07:36:11.008Z,72.85
2017-03-11T07:37:10.648Z,73.04
2017-03-11T07:38:11.070Z,72.95
2017-03-11T07:39:10.692Z,72.85
2017-03-11T07:40:11.143Z,72.95
2017-03-11T07:41:10.763Z,73.14
2017-03-11T07:42:11.224Z,72.95
2017-03-11T07:43:10.838Z,72.75
2017-03-11T07:44:10.873Z,72.95
2017-03-11T07:45:10.897Z,73.04
2017-03-11T07:46:11.347Z,72.99
2017-03-11T07:47:10.985Z,72.89
2017-03-11T07:48:11.426Z,72.6
2017-03-11T07:49:11.048Z,72.79
2017-03-11T07:50:11.496Z,72.6
2017-03-11T07:51:11.103Z,72.51
2017-03-11T07:52:11.551Z,72.41
2017-03-11T07:53:11.180Z,72.51
2017-03-11T07:54:11.635Z,72.22
2017-03-11T07:55:11.251Z,72.41
2017-03-11T07:56:11.286Z,72.79
2017-03-11T07:57:11.316Z,71.84
2017-03-11T07:58:11.759Z,71.78
2017-03-11T07:59:11.382Z,71.88
2017-03-11T08:00:11.849Z,71.88
2017-03-11T08:01:11.451Z,72.07
2017-03-11T08:02:11.897Z,71.5
2017-03-11T08:03:11.918Z,71.88
2017-03-11T08:04:11.984Z,71.31
2017-03-11T08:05:11.595Z,71.15
2017-03-11T08:06:12.045Z,71.25
2017-03-11T08:07:11.666Z,71.53
2017-03-11T08:08:11.694Z,70.39
2017-03-11T08:09:11.736Z,70.97
2017-03-11T08:10:11.767Z,70.68
2017-03-11T08:11:11.811Z,70.3
2017-03-11T08:12:11.843Z,70.05
2017-03-11T08:13:11.874Z,70.05
2017-03-11T08:14:11.914Z,70.05
2017-03-11T08:15:11.957Z,70.24
2017-03-11T08:16:12.010Z,69.67
2017-03-11T08:17:12.038Z,69.57
2017-03-11T08:18:12.054Z,69.48
2017-03-11T08:19:12.092Z,69.1
2017-03-11T08:20:12.128Z,69.19
2017-03-11T08:21:12.160Z,68.81
2017-03-11T08:22:12.593Z,68.84
2017-03-11T08:23:12.238Z,68.94
2017-03-11T08:24:12.275Z,68.18
2017-03-11T08:25:12.304Z,68.27
2017-03-11T08:26:12.347Z,68.37
2017-03-11T08:27:12.412Z,68.37
2017-03-11T08:28:12.420Z,67.99
2017-03-11T08:29:12.455Z,68.18
2017-03-11T08:30:12.507Z,67.8
2017-03-11T08:31:12.525Z,68.27
2017-03-11T08:32:12.563Z,67.8
2017-03-11T08:33:12.605Z,68.18
2017-03-11T08:34:13.047Z,67.61
2017-03-11T08:35:12.687Z,68.18
2017-03-11T08:36:13.112Z,67.61
2017-03-11T08:37:12.759Z,66.97
2017-03-11T08:38:13.183Z,67.45
2017-03-11T08:39:12.818Z,66.69
2017-03-11T08:40:12.865Z,66.88
2017-03-11T08:41:12.900Z,66.88
2017-03-11T08:42:12.952Z,66.78
2017-03-11T08:43:12.971Z,66.4
2017-03-11T08:44:13.000Z,66.97
2017-03-11T08:45:13.048Z,66.31
2017-03-11T08:46:13.095Z,66.59
2017-03-11T08:47:13.117Z,66.4
2017-03-11T08:48:13.568Z,66.31
2017-03-11T08:49:13.194Z,65.96
2017-03-11T08:50:13.620Z,65.77
2017-03-11T08:51:13.267Z,65.73
2017-03-11T08:52:13.721Z,65.77
2017-03-11T08:53:13.370Z,65.86
2017-03-11T08:54:13.766Z,65.39
2017-03-11T08:55:13.409Z,65.58
2017-03-11T08:56:13.446Z,64.91
2017-03-11T08:57:13.492Z,64.91
2017-03-11T08:58:13.973Z,64.94
2017-03-11T08:59:13.556Z,65.13
2017-03-11T09:00:13.600Z,64.65
2017-03-11T09:01:13.636Z,64.24
2017-03-11T09:02:13.684Z,64.24
2017-03-11T09:03:13.708Z,64.24
2017-03-11T09:04:14.155Z,64.15
2017-03-11T09:05:13.787Z,63.86
2017-03-11T09:06:14.228Z,64.53
2017-03-11T09:07:13.861Z,63.57
2017-03-11T09:08:14.313Z,63.57
2017-03-11T09:09:13.938Z,63.48
2017-03-11T09:10:14.364Z,63.1
2017-03-11T09:11:14.017Z,63.86
2017-03-11T09:12:14.053Z,62.81
2017-03-11T09:13:14.087Z,63.29
2017-03-11T09:14:14.126Z,63.39
2017-03-11T09:15:14.167Z,63.29
2017-03-11T09:16:14.205Z,63
2017-03-11T09:17:14.232Z,63.2
2017-03-11T09:18:14.272Z,63.1
2017-03-11T09:19:14.306Z,63.39
2017-03-11T09:20:14.349Z,62.52
2017-03-11T09:21:14.380Z,62.62
2017-03-11T09:22:14.422Z,62.15
2017-03-11T09:23:14.455Z,62.24
2017-03-11T09:24:14.882Z,62.43
2017-03-11T09:25:14.549Z,62.91
2017-03-11T09:26:14.570Z,62.52
2017-03-11T09:27:14.613Z,62.15
2017-03-11T09:28:14.640Z,61.86
2017-03-11T09:29:14.685Z,61.57
2017-03-11T09:30:14.730Z,62.05
2017-03-11T09:31:14.775Z,62.24
2017-03-11T09:32:14.803Z,61.86
2017-03-11T09:33:14.841Z,61.76
2017-03-11T09:34:14.869Z,61.86
2017-03-11T09:35:14.903Z,62.05
2017-03-11T09:36:14.939Z,62.24
2017-03-11T09:37:14.976Z,61.76
2017-03-11T09:38:15.418Z,61.48
2017-03-11T09:39:15.057Z,61.57
2017-03-11T09:40:15.101Z,61.48
2017-03-11T09:41:15.124Z,61.67
2017-03-11T09:42:15.167Z,61.48
2017-03-11T09:43:15.586Z,61.76
2017-03-11T09:44:15.240Z,61.96
2017-03-11T09:45:15.275Z,61.57
2017-03-11T09:46:15.737Z,61.67
2017-03-11T09:47:15.355Z,61.57
2017-03-11T09:48:15.804Z,61.67
2017-03-11T09:49:15.426Z,61.86
2017-03-11T09:50:15.864Z,61.86
2017-03-11T09:51:15.499Z,61.76
2017-03-11T09:52:15.938Z,61.96
2017-03-11T09:53:15.575Z,62.24
2017-03-11T09:54:15.619Z,62.34
2017-03-11T09:55:15.641Z,61.76
2017-03-11T09:56:15.681Z,61.76
2017-03-11T09:57:15.720Z,61.48
2017-03-11T09:58:15.780Z,61.6
2017-03-11T09:59:15.795Z,61.8
2017-03-11T10:00:15.834Z,61.41
2017-03-11T10:01:15.871Z,61.99
2017-03-11T10:02:16.331Z,62.18
2017-03-11T10:03:15.941Z,61.41
2017-03-11T10:04:15.986Z,61.6
2017-03-11T10:05:16.026Z,61.7
2017-03-11T10:06:16.056Z,61.7
2017-03-11T10:07:16.102Z,61.32
2017-03-11T10:08:16.151Z,61.51
2017-03-11T10:09:16.176Z,60.94
2017-03-11T10:10:16.213Z,60.75
2017-03-11T10:11:16.255Z,61.41
2017-03-11T10:12:16.286Z,61.32
2017-03-11T10:13:16.325Z,61.54
2017-03-11T10:14:16.777Z,61.25
2017-03-11T10:15:16.409Z,61.07
2017-03-11T10:16:16.859Z,60.58
2017-03-11T10:17:16.490Z,60.49
2017-03-11T10:18:16.522Z,60.97
2017-03-11T10:19:16.572Z,60.39
2017-03-11T10:20:16.995Z,60.02
2017-03-11T10:21:16.642Z,60.02
2017-03-11T10:22:17.098Z,60.04
2017-03-11T10:23:16.717Z,59.95
2017-03-11T10:24:17.166Z,60.04
2017-03-11T10:25:16.786Z,59.66
2017-03-11T10:26:17.263Z,59.38
2017-03-11T10:27:16.873Z,59.19
2017-03-11T10:28:16.915Z,59.41
2017-03-11T10:29:16.949Z,59.31
2017-03-11T10:30:16.988Z,59.5
2017-03-11T10:31:17.033Z,58.86
2017-03-11T10:32:17.075Z,58.19
2017-03-11T10:33:17.111Z,58.29
2017-03-11T10:34:17.387Z,58.61
2017-03-11T10:35:17.195Z,58.76
2017-03-11T10:36:17.235Z,58.41
2017-03-11T10:37:17.281Z,58.12
2017-03-11T10:38:17.717Z,57.93
2017-03-11T10:39:17.361Z,57.87
2017-03-11T10:40:17.410Z,57.58
2017-03-11T10:41:17.840Z,56.75
2017-03-11T10:42:17.494Z,56.75
2017-03-11T10:43:17.530Z,57.23
2017-03-11T10:44:17.584Z,56.17
2017-03-11T10:45:17.616Z,55.98
2017-03-11T10:46:18.065Z,55.82
2017-03-11T10:47:17.704Z,55.63
2017-03-11T10:48:18.147Z,55.91
2017-03-11T10:49:17.820Z,55.46
2017-03-11T10:50:18.254Z,55.08
2017-03-11T10:51:17.896Z,54.22
2017-03-11T10:52:17.939Z,54.32
2017-03-11T10:53:17.984Z,54.05
2017-03-11T10:54:18.016Z,53.16
2017-03-11T10:55:18.071Z,53.55
2017-03-11T10:56:18.117Z,52.97
2017-03-11T10:57:18.378Z,52.11
2017-03-11T10:58:18.223Z,51.73
2017-03-11T10:59:18.240Z,52.11
2017-03-11T11:00:18.283Z,52.5
2017-03-11T11:01:18.325Z,51.82
2017-03-11T11:02:18.763Z,51.63
2017-03-11T11:03:18.416Z,51.44
2017-03-11T11:04:18.455Z,51.92
2017-03-11T11:05:18.504Z,51.73
2017-03-11T11:06:18.554Z,51.25
2017-03-11T11:07:18.601Z,50.77
2017-03-11T11:08:19.017Z,50.36
2017-03-11T11:09:18.674Z,51.13
2017-03-11T11:10:18.712Z,50.93
2017-03-11T11:11:18.754Z,50.56
2017-03-11T11:12:18.790Z,50.74
2017-03-11T11:13:18.838Z,50.65
2017-03-11T11:14:18.890Z,50.62
2017-03-11T11:15:18.920Z,50.72
2017-03-11T11:16:18.974Z,50.72
2017-03-11T11:17:19.003Z,50.62
2017-03-11T11:18:19.039Z,50.34
2017-03-11T11:19:19.473Z,50.52
2017-03-11T11:20:19.137Z,50.41
2017-03-11T11:21:19.179Z,50.41
2017-03-11T11:22:19.214Z,50.31
2017-03-11T11:23:19.257Z,50.89
2017-03-11T11:24:19.287Z,50.05
2017-03-11T11:25:19.326Z,50.02
2017-03-11T11:26:19.364Z,50.41
2017-03-11T11:27:19.410Z,50.21
2017-03-11T11:28:19.446Z,50.12
2017-03-11T11:29:19.490Z,50.98
2017-03-11T11:30:19.528Z,50.6
2017-03-11T11:31:19.566Z,50.57
2017-03-11T11:32:19.601Z,50.67
2017-03-11T11:33:19.672Z,50.09
2017-03-11T11:34:19.682Z,50.67
2017-03-11T11:35:19.724Z,50.38
2017-03-11T11:36:19.765Z,50.57
2017-03-11T11:37:19.813Z,50.57
2017-03-11T11:38:19.842Z,51.05
2017-03-11T11:39:19.882Z,51.12
2017-03-11T11:40:19.930Z,50.84
2017-03-11T11:41:19.961Z,50.84
2017-03-11T11:42:19.997Z,50.74
2017-03-11T11:43:20.047Z,50.64
2017-03-11T11:44:20.078Z,50.64
2017-03-11T11:45:20.114Z,50.74
2017-03-11T11:46:20.156Z,50.55
2017-03-11T11:47:20.202Z,51.03
2017-03-11T11:48:20.232Z,50.84
2017-03-11T11:49:20.268Z,51.38
2017-03-11T11:50:20.313Z,51.12
2017-03-11T11:51:20.356Z,51.38
2017-03-11T11:52:20.388Z,51.67
2017-03-11T11:53:20.427Z,51
2017-03-11T11:54:20.466Z,51.29
2017-03-11T11:55:20.510Z,51.09
2017-03-11T11:56:20.548Z,50.81
2017-03-11T11:57:20.581Z,51.48
2017-03-11T11:58:20.623Z,51.48
2017-03-11T11:59:20.671Z,51.38
2017-03-11T12:00:20.716Z,51.48
2017-03-11T12:01:20.732Z,51.86
2017-03-11T12:02:20.778Z,51.57
2017-03-11T12:03:20.812Z,51.57
2017-03-11T12:04:20.849Z,51.64
2017-03-11T12:05:20.887Z,51.74
2017-03-11T12:06:20.925Z,52.12
2017-03-11T12:07:20.963Z,52.59
2017-03-11T12:08:21.398Z,52.03
2017-03-11T12:09:21.037Z,52.31
2017-03-11T12:10:21.469Z,51.74
2017-03-11T12:11:21.129Z,52.12
2017-03-11T12:12:21.154Z,52.12
2017-03-11T12:13:21.191Z,52.31
2017-03-11T12:14:21.236Z,52.5
2017-03-11T12:15:21.271Z,52.88
2017-03-11T12:16:21.309Z,52.69
2017-03-11T12:17:21.345Z,52.98
2017-03-11T12:18:21.397Z,52.59
2017-03-11T12:19:21.422Z,52.69
2017-03-11T12:20:21.471Z,52.5
2017-03-11T12:21:21.498Z,52.79
2017-03-11T12:22:21.539Z,53.08
2017-03-11T12:23:21.574Z,53.45
2017-03-11T12:24:22.004Z,52.88
2017-03-11T12:25:21.650Z,52.59
2017-03-11T12:26:21.696Z,52.5
2017-03-11T12:27:21.737Z,52.59
2017-03-11T12:28:21.763Z,52.5
2017-03-11T12:29:21.824Z,52.5
2017-03-11T12:30:21.840Z,52.59
2017-03-11T12:31:21.882Z,52.98
2017-03-11T12:32:21.916Z,52.76
2017-03-11T12:33:21.957Z,52.67
2017-03-11T12:34:22.024Z,52.76
2017-03-11T12:35:22.030Z,53.14
2017-03-11T12:36:22.068Z,52.86
2017-03-11T12:37:22.124Z,53.05
2017-03-11T12:38:22.150Z,53.33
2017-03-11T12:39:22.186Z,53.24
2017-03-11T12:40:22.225Z,53.43
2017-03-11T12:41:22.258Z,53.43
2017-03-11T12:42:22.307Z,53.24
2017-03-11T12:43:22.336Z,53.33
2017-03-11T12:44:22.378Z,53.91
2017-03-11T12:45:22.415Z,53.72
2017-03-11T12:46:22.448Z,54
2017-03-11T12:47:22.490Z,53.81
2017-03-11T12:48:22.521Z,53.62
2017-03-11T12:49:22.564Z,53.81
2017-03-11T12:50:22.596Z,53.43
2017-03-11T12:51:22.636Z,53.91
2017-03-11T12:52:22.674Z,54
2017-03-11T12:53:23.113Z,53.72
2017-03-11T12:54:22.751Z,53.81
2017-03-11T12:55:22.788Z,53.62